sensor_id;sensor_type;location;lat;lon;timestamp;P1;durP1;ratioP1;P2;durP2;ratioP2
20814;SDS011;10568;48.176;16.316;2023-12-04T00:01:21;9.17;;;3.27;;
20814;SDS011;10568;48.176;16.316;2023-12-04T00:03:46;9.00;;;5.57;;
20814;SDS011;10568;48.176;16.316;2023-12-04T00:06:12;3.77;;;3.37;;
20814;SDS011;10568;48.176;16.316;2023-12-04T00:08:38;9.43;;;4.03;;
20814;SDS011;10568;48.176;16.316;2023-12-04T00:11:05;4.10;;;3.60;;
20814;SDS011;10568;48.176;16.316;2023-12-04T00:13:31;6.33;;;4.30;;
20814;SDS011;10568;48.176;16.316;2023-12-04T00:15:57;6.13;;;3.60;;
20814;SDS011;10568;48.176;16.316;2023-12-04T00:18:22;8.23;;;4.00;;
20814;SDS011;10568;48.176;16.316;2023-12-04T00:20:48;4.77;;;3.37;;
20814;SDS011;10568;48.176;16.316;2023-12-04T00:23:14;5.77;;;3.73;;
20814;SDS011;10568;48.176;16.316;2023-12-04T00:25:40;4.47;;;3.57;;
20814;SDS011;10568;48.176;16.316;2023-12-04T00:28:05;10.30;;;4.97;;
20814;SDS011;10568;48.176;16.316;2023-12-04T00:30:31;7.23;;;4.57;;
20814;SDS011;10568;48.176;16.316;2023-12-04T00:32:57;7.70;;;4.37;;
20814;SDS011;10568;48.176;16.316;2023-12-04T00:35:22;5.47;;;4.87;;
20814;SDS011;10568;48.176;16.316;2023-12-04T00:37:48;10.53;;;5.53;;
20814;SDS011;10568;48.176;16.316;2023-12-04T00:40:14;8.03;;;5.50;;
20814;SDS011;10568;48.176;16.316;2023-12-04T00:42:40;6.13;;;3.97;;
20814;SDS011;10568;48.176;16.316;2023-12-04T00:45:06;3.93;;;3.50;;
20814;SDS011;10568;48.176;16.316;2023-12-04T00:47:32;6.93;;;4.00;;
20814;SDS011;10568;48.176;16.316;2023-12-04T00:49:57;4.80;;;3.73;;
20814;SDS011;10568;48.176;16.316;2023-12-04T00:52:23;7.30;;;4.50;;
20814;SDS011;10568;48.176;16.316;2023-12-04T00:54:49;6.00;;;4.13;;
20814;SDS011;10568;48.176;16.316;2023-12-04T00:57:15;8.13;;;4.43;;
20814;SDS011;10568;48.176;16.316;2023-12-04T00:59:40;8.50;;;4.87;;
20814;SDS011;10568;48.176;16.316;2023-12-04T01:02:06;6.43;;;3.57;;
20814;SDS011;10568;48.176;16.316;2023-12-04T01:04:32;6.50;;;3.87;;
20814;SDS011;10568;48.176;16.316;2023-12-04T01:06:58;5.13;;;4.47;;
20814;SDS011;10568;48.176;16.316;2023-12-04T01:09:24;5.37;;;4.63;;
20814;SDS011;10568;48.176;16.316;2023-12-04T01:11:53;8.07;;;4.10;;
20814;SDS011;10568;48.176;16.316;2023-12-04T01:14:19;4.97;;;3.73;;
20814;SDS011;10568;48.176;16.316;2023-12-04T01:16:46;7.13;;;5.47;;
20814;SDS011;10568;48.176;16.316;2023-12-04T01:19:12;5.90;;;4.80;;
20814;SDS011;10568;48.176;16.316;2023-12-04T01:21:38;3.37;;;2.77;;
20814;SDS011;10568;48.176;16.316;2023-12-04T01:24:04;7.07;;;3.97;;
20814;SDS011;10568;48.176;16.316;2023-12-04T01:26:30;3.43;;;3.07;;
20814;SDS011;10568;48.176;16.316;2023-12-04T01:28:56;10.10;;;4.33;;
20814;SDS011;10568;48.176;16.316;2023-12-04T01:31:22;2.90;;;2.70;;
20814;SDS011;10568;48.176;16.316;2023-12-04T01:33:48;3.00;;;2.73;;
20814;SDS011;10568;48.176;16.316;2023-12-04T01:36:13;5.90;;;2.90;;
20814;SDS011;10568;48.176;16.316;2023-12-04T01:38:39;2.60;;;2.40;;
20814;SDS011;10568;48.176;16.316;2023-12-04T01:41:05;6.00;;;3.60;;
20814;SDS011;10568;48.176;16.316;2023-12-04T01:43:31;4.80;;;2.63;;
20814;SDS011;10568;48.176;16.316;2023-12-04T01:45:57;4.27;;;3.07;;
20814;SDS011;10568;48.176;16.316;2023-12-04T01:48:26;3.43;;;3.13;;
20814;SDS011;10568;48.176;16.316;2023-12-04T01:50:53;20.17;;;3.47;;
20814;SDS011;10568;48.176;16.316;2023-12-04T01:53:22;4.43;;;3.30;;
20814;SDS011;10568;48.176;16.316;2023-12-04T01:55:47;3.13;;;2.53;;
20814;SDS011;10568;48.176;16.316;2023-12-04T01:58:14;9.80;;;2.93;;
20814;SDS011;10568;48.176;16.316;2023-12-04T02:00:41;6.93;;;3.20;;
20814;SDS011;10568;48.176;16.316;2023-12-04T02:03:06;7.30;;;3.47;;
20814;SDS011;10568;48.176;16.316;2023-12-04T02:05:34;5.30;;;2.73;;
20814;SDS011;10568;48.176;16.316;2023-12-04T02:08:02;2.73;;;2.53;;
20814;SDS011;10568;48.176;16.316;2023-12-04T02:10:28;5.73;;;2.63;;
20814;SDS011;10568;48.176;16.316;2023-12-04T02:12:54;4.43;;;2.97;;
20814;SDS011;10568;48.176;16.316;2023-12-04T02:15:20;3.43;;;2.50;;
20814;SDS011;10568;48.176;16.316;2023-12-04T02:17:46;4.97;;;2.83;;
20814;SDS011;10568;48.176;16.316;2023-12-04T02:20:13;3.17;;;2.53;;
20814;SDS011;10568;48.176;16.316;2023-12-04T02:22:39;4.67;;;3.30;;
20814;SDS011;10568;48.176;16.316;2023-12-04T02:25:06;2.53;;;2.33;;
20814;SDS011;10568;48.176;16.316;2023-12-04T02:30:19;1.97;;;1.80;;
20814;SDS011;10568;48.176;16.316;2023-12-04T02:32:48;3.87;;;2.77;;
20814;SDS011;10568;48.176;16.316;2023-12-04T02:35:16;3.87;;;2.47;;
20814;SDS011;10568;48.176;16.316;2023-12-04T02:37:47;7.30;;;2.70;;
20814;SDS011;10568;48.176;16.316;2023-12-04T02:40:15;6.13;;;3.17;;
20814;SDS011;10568;48.176;16.316;2023-12-04T02:42:41;5.70;;;2.40;;
20814;SDS011;10568;48.176;16.316;2023-12-04T02:45:06;4.83;;;2.60;;
20814;SDS011;10568;48.176;16.316;2023-12-04T02:47:33;3.30;;;2.80;;
20814;SDS011;10568;48.176;16.316;2023-12-04T02:49:59;2.90;;;2.33;;
20814;SDS011;10568;48.176;16.316;2023-12-04T02:52:25;3.37;;;2.70;;
20814;SDS011;10568;48.176;16.316;2023-12-04T02:54:50;4.97;;;2.70;;
20814;SDS011;10568;48.176;16.316;2023-12-04T02:57:16;3.47;;;2.33;;
20814;SDS011;10568;48.176;16.316;2023-12-04T02:59:42;5.07;;;3.60;;
20814;SDS011;10568;48.176;16.316;2023-12-04T03:02:08;4.17;;;3.10;;
20814;SDS011;10568;48.176;16.316;2023-12-04T03:04:34;2.50;;;2.30;;
20814;SDS011;10568;48.176;16.316;2023-12-04T03:07:00;5.27;;;2.87;;
20814;SDS011;10568;48.176;16.316;2023-12-04T03:09:25;3.97;;;2.77;;
20814;SDS011;10568;48.176;16.316;2023-12-04T03:11:51;4.40;;;2.97;;
20814;SDS011;10568;48.176;16.316;2023-12-04T03:14:17;5.27;;;2.93;;
20814;SDS011;10568;48.176;16.316;2023-12-04T03:16:43;3.60;;;2.23;;
20814;SDS011;10568;48.176;16.316;2023-12-04T03:19:08;1.83;;;1.63;;
20814;SDS011;10568;48.176;16.316;2023-12-04T03:21:34;4.53;;;2.40;;
20814;SDS011;10568;48.176;16.316;2023-12-04T03:24:00;8.27;;;2.83;;
20814;SDS011;10568;48.176;16.316;2023-12-04T03:26:26;3.20;;;2.50;;
20814;SDS011;10568;48.176;16.316;2023-12-04T03:28:51;4.73;;;2.43;;
20814;SDS011;10568;48.176;16.316;2023-12-04T03:31:17;4.77;;;2.87;;
20814;SDS011;10568;48.176;16.316;2023-12-04T03:33:43;4.03;;;2.60;;
20814;SDS011;10568;48.176;16.316;2023-12-04T03:36:08;2.83;;;2.23;;
20814;SDS011;10568;48.176;16.316;2023-12-04T03:38:34;2.87;;;2.37;;
20814;SDS011;10568;48.176;16.316;2023-12-04T03:41:00;3.77;;;2.70;;
20814;SDS011;10568;48.176;16.316;2023-12-04T03:43:26;3.60;;;2.80;;
20814;SDS011;10568;48.176;16.316;2023-12-04T03:45:52;4.37;;;3.33;;
20814;SDS011;10568;48.176;16.316;2023-12-04T03:48:17;3.73;;;2.97;;
20814;SDS011;10568;48.176;16.316;2023-12-04T03:50:43;2.63;;;2.37;;
20814;SDS011;10568;48.176;16.316;2023-12-04T03:53:09;4.90;;;3.63;;
20814;SDS011;10568;48.176;16.316;2023-12-04T03:55:35;3.60;;;2.30;;
20814;SDS011;10568;48.176;16.316;2023-12-04T03:58:00;5.50;;;3.03;;
20814;SDS011;10568;48.176;16.316;2023-12-04T04:00:26;3.00;;;2.70;;
20814;SDS011;10568;48.176;16.316;2023-12-04T04:02:52;2.43;;;2.13;;
20814;SDS011;10568;48.176;16.316;2023-12-04T04:05:18;2.37;;;2.20;;
20814;SDS011;10568;48.176;16.316;2023-12-04T04:07:43;2.50;;;2.23;;
20814;SDS011;10568;48.176;16.316;2023-12-04T04:10:09;5.13;;;2.43;;
20814;SDS011;10568;48.176;16.316;2023-12-04T04:12:35;2.90;;;2.60;;
20814;SDS011;10568;48.176;16.316;2023-12-04T04:15:01;2.77;;;2.23;;
20814;SDS011;10568;48.176;16.316;2023-12-04T04:17:28;2.43;;;2.23;;
20814;SDS011;10568;48.176;16.316;2023-12-04T04:19:54;2.13;;;1.80;;
20814;SDS011;10568;48.176;16.316;2023-12-04T04:22:20;2.40;;;2.20;;
20814;SDS011;10568;48.176;16.316;2023-12-04T04:24:47;4.80;;;2.17;;
20814;SDS011;10568;48.176;16.316;2023-12-04T04:27:14;7.27;;;3.23;;
20814;SDS011;10568;48.176;16.316;2023-12-04T04:29:40;2.13;;;1.93;;
20814;SDS011;10568;48.176;16.316;2023-12-04T04:32:06;2.97;;;2.30;;
20814;SDS011;10568;48.176;16.316;2023-12-04T04:34:32;4.63;;;2.10;;
20814;SDS011;10568;48.176;16.316;2023-12-04T04:36:58;2.10;;;1.90;;
20814;SDS011;10568;48.176;16.316;2023-12-04T04:39:23;6.23;;;1.97;;
20814;SDS011;10568;48.176;16.316;2023-12-04T04:41:49;2.90;;;2.10;;
20814;SDS011;10568;48.176;16.316;2023-12-04T04:44:15;2.57;;;1.97;;
20814;SDS011;10568;48.176;16.316;2023-12-04T04:46:41;4.37;;;2.37;;
20814;SDS011;10568;48.176;16.316;2023-12-04T04:49:07;2.00;;;1.90;;
20814;SDS011;10568;48.176;16.316;2023-12-04T04:51:33;2.93;;;2.20;;
20814;SDS011;10568;48.176;16.316;2023-12-04T04:54:02;3.10;;;2.47;;
20814;SDS011;10568;48.176;16.316;2023-12-04T04:56:29;2.67;;;2.47;;
20814;SDS011;10568;48.176;16.316;2023-12-04T04:58:55;3.43;;;3.13;;
20814;SDS011;10568;48.176;16.316;2023-12-04T05:01:21;2.70;;;2.50;;
20814;SDS011;10568;48.176;16.316;2023-12-04T05:03:46;3.87;;;2.77;;
20814;SDS011;10568;48.176;16.316;2023-12-04T05:06:13;2.40;;;2.20;;
20814;SDS011;10568;48.176;16.316;2023-12-04T05:08:40;2.70;;;2.50;;
20814;SDS011;10568;48.176;16.316;2023-12-04T05:11:05;3.53;;;2.83;;
20814;SDS011;10568;48.176;16.316;2023-12-04T05:13:31;7.90;;;3.70;;
20814;SDS011;10568;48.176;16.316;2023-12-04T05:15:57;4.37;;;3.47;;
20814;SDS011;10568;48.176;16.316;2023-12-04T05:18:23;2.13;;;1.93;;
20814;SDS011;10568;48.176;16.316;2023-12-04T05:20:49;3.00;;;2.77;;
20814;SDS011;10568;48.176;16.316;2023-12-04T05:23:14;2.93;;;2.47;;
20814;SDS011;10568;48.176;16.316;2023-12-04T05:25:40;1.80;;;1.70;;
20814;SDS011;10568;48.176;16.316;2023-12-04T05:28:06;3.93;;;2.83;;
20814;SDS011;10568;48.176;16.316;2023-12-04T05:30:32;4.27;;;2.97;;
20814;SDS011;10568;48.176;16.316;2023-12-04T05:32:57;4.17;;;2.73;;
20814;SDS011;10568;48.176;16.316;2023-12-04T05:35:23;3.57;;;2.67;;
20814;SDS011;10568;48.176;16.316;2023-12-04T05:37:48;7.00;;;3.17;;
20814;SDS011;10568;48.176;16.316;2023-12-04T05:40:14;2.50;;;2.30;;
20814;SDS011;10568;48.176;16.316;2023-12-04T05:42:40;5.43;;;2.83;;
20814;SDS011;10568;48.176;16.316;2023-12-04T05:45:06;2.27;;;2.07;;
20814;SDS011;10568;48.176;16.316;2023-12-04T05:47:33;3.00;;;2.70;;
20814;SDS011;10568;48.176;16.316;2023-12-04T05:49:59;3.60;;;2.83;;
20814;SDS011;10568;48.176;16.316;2023-12-04T05:52:25;2.80;;;2.60;;
20814;SDS011;10568;48.176;16.316;2023-12-04T05:54:51;3.57;;;2.73;;
20814;SDS011;10568;48.176;16.316;2023-12-04T05:57:17;4.50;;;3.73;;
20814;SDS011;10568;48.176;16.316;2023-12-04T05:59:42;3.63;;;2.77;;
20814;SDS011;10568;48.176;16.316;2023-12-04T06:02:08;4.57;;;2.50;;
20814;SDS011;10568;48.176;16.316;2023-12-04T06:04:34;3.57;;;2.80;;
20814;SDS011;10568;48.176;16.316;2023-12-04T06:06:59;2.17;;;2.00;;
20814;SDS011;10568;48.176;16.316;2023-12-04T06:09:25;2.87;;;2.67;;
20814;SDS011;10568;48.176;16.316;2023-12-04T06:11:51;2.87;;;2.60;;
20814;SDS011;10568;48.176;16.316;2023-12-04T06:14:16;4.13;;;3.43;;
20814;SDS011;10568;48.176;16.316;2023-12-04T06:16:42;3.63;;;2.47;;
20814;SDS011;10568;48.176;16.316;2023-12-04T06:21:57;8.27;;;3.20;;
20814;SDS011;10568;48.176;16.316;2023-12-04T06:24:23;13.90;;;3.30;;
20814;SDS011;10568;48.176;16.316;2023-12-04T06:26:50;4.07;;;3.30;;
20814;SDS011;10568;48.176;16.316;2023-12-04T06:29:16;5.43;;;3.60;;
20814;SDS011;10568;48.176;16.316;2023-12-04T06:31:43;3.73;;;3.33;;
20814;SDS011;10568;48.176;16.316;2023-12-04T06:34:09;11.70;;;3.20;;
20814;SDS011;10568;48.176;16.316;2023-12-04T06:36:37;4.33;;;2.70;;
20814;SDS011;10568;48.176;16.316;2023-12-04T06:39:07;6.87;;;4.13;;
20814;SDS011;10568;48.176;16.316;2023-12-04T06:41:37;4.33;;;3.23;;
20814;SDS011;10568;48.176;16.316;2023-12-04T06:44:06;5.00;;;3.80;;
20814;SDS011;10568;48.176;16.316;2023-12-04T06:46:34;4.07;;;2.27;;
20814;SDS011;10568;48.176;16.316;2023-12-04T06:49:04;6.97;;;2.53;;
20814;SDS011;10568;48.176;16.316;2023-12-04T06:51:33;5.77;;;3.43;;
20814;SDS011;10568;48.176;16.316;2023-12-04T06:53:59;3.53;;;3.00;;
20814;SDS011;10568;48.176;16.316;2023-12-04T06:56:24;5.70;;;2.70;;
20814;SDS011;10568;48.176;16.316;2023-12-04T06:58:50;4.40;;;3.50;;
20814;SDS011;10568;48.176;16.316;2023-12-04T07:01:16;4.63;;;3.50;;
20814;SDS011;10568;48.176;16.316;2023-12-04T07:03:41;4.63;;;4.20;;
20814;SDS011;10568;48.176;16.316;2023-12-04T07:06:07;5.87;;;3.70;;
20814;SDS011;10568;48.176;16.316;2023-12-04T07:08:33;5.47;;;3.03;;
20814;SDS011;10568;48.176;16.316;2023-12-04T07:10:59;5.73;;;3.10;;
20814;SDS011;10568;48.176;16.316;2023-12-04T07:13:24;4.17;;;3.83;;
20814;SDS011;10568;48.176;16.316;2023-12-04T07:15:50;5.13;;;2.77;;
20814;SDS011;10568;48.176;16.316;2023-12-04T07:18:16;4.87;;;3.87;;
20814;SDS011;10568;48.176;16.316;2023-12-04T07:20:42;5.17;;;3.40;;
20814;SDS011;10568;48.176;16.316;2023-12-04T07:23:08;5.67;;;3.97;;
20814;SDS011;10568;48.176;16.316;2023-12-04T07:25:33;5.37;;;2.97;;
20814;SDS011;10568;48.176;16.316;2023-12-04T07:27:59;3.87;;;3.33;;
20814;SDS011;10568;48.176;16.316;2023-12-04T07:30:25;4.47;;;3.50;;
20814;SDS011;10568;48.176;16.316;2023-12-04T07:32:51;11.17;;;5.70;;
20814;SDS011;10568;48.176;16.316;2023-12-04T07:35:18;7.07;;;4.07;;
20814;SDS011;10568;48.176;16.316;2023-12-04T07:37:44;9.80;;;4.50;;
20814;SDS011;10568;48.176;16.316;2023-12-04T07:40:09;6.50;;;4.83;;
20814;SDS011;10568;48.176;16.316;2023-12-04T07:42:36;12.63;;;3.80;;
20814;SDS011;10568;48.176;16.316;2023-12-04T07:45:02;4.17;;;3.67;;
20814;SDS011;10568;48.176;16.316;2023-12-04T07:47:28;5.77;;;3.43;;
20814;SDS011;10568;48.176;16.316;2023-12-04T07:49:54;5.93;;;3.90;;
20814;SDS011;10568;48.176;16.316;2023-12-04T07:52:20;7.27;;;4.63;;
20814;SDS011;10568;48.176;16.316;2023-12-04T07:54:45;7.40;;;4.43;;
20814;SDS011;10568;48.176;16.316;2023-12-04T07:57:11;8.10;;;3.87;;
20814;SDS011;10568;48.176;16.316;2023-12-04T07:59:37;5.77;;;3.30;;
20814;SDS011;10568;48.176;16.316;2023-12-04T08:02:02;5.97;;;3.50;;
20814;SDS011;10568;48.176;16.316;2023-12-04T08:04:29;6.97;;;3.83;;
20814;SDS011;10568;48.176;16.316;2023-12-04T08:06:54;5.43;;;3.20;;
20814;SDS011;10568;48.176;16.316;2023-12-04T08:09:20;4.80;;;3.73;;
20814;SDS011;10568;48.176;16.316;2023-12-04T08:11:46;11.37;;;5.33;;
20814;SDS011;10568;48.176;16.316;2023-12-04T08:14:12;6.40;;;3.87;;
20814;SDS011;10568;48.176;16.316;2023-12-04T08:16:38;5.93;;;4.97;;
20814;SDS011;10568;48.176;16.316;2023-12-04T08:19:03;7.40;;;5.13;;
20814;SDS011;10568;48.176;16.316;2023-12-04T08:21:29;8.23;;;4.43;;
20814;SDS011;10568;48.176;16.316;2023-12-04T08:23:55;3.87;;;3.00;;
20814;SDS011;10568;48.176;16.316;2023-12-04T08:26:21;7.80;;;4.63;;
20814;SDS011;10568;48.176;16.316;2023-12-04T08:28:48;16.00;;;5.53;;
20814;SDS011;10568;48.176;16.316;2023-12-04T08:31:13;5.30;;;3.97;;
20814;SDS011;10568;48.176;16.316;2023-12-04T08:33:40;14.23;;;3.53;;
20814;SDS011;10568;48.176;16.316;2023-12-04T08:36:06;7.70;;;5.57;;
20814;SDS011;10568;48.176;16.316;2023-12-04T08:38:32;13.03;;;5.30;;
20814;SDS011;10568;48.176;16.316;2023-12-04T08:40:58;6.03;;;3.93;;
20814;SDS011;10568;48.176;16.316;2023-12-04T08:43:24;6.97;;;4.33;;
20814;SDS011;10568;48.176;16.316;2023-12-04T08:45:50;10.90;;;4.90;;
20814;SDS011;10568;48.176;16.316;2023-12-04T08:48:15;8.73;;;4.40;;
20814;SDS011;10568;48.176;16.316;2023-12-04T08:50:41;9.87;;;4.77;;
20814;SDS011;10568;48.176;16.316;2023-12-04T08:53:06;4.53;;;2.83;;
20814;SDS011;10568;48.176;16.316;2023-12-04T08:55:32;7.23;;;4.20;;
20814;SDS011;10568;48.176;16.316;2023-12-04T08:57:58;7.83;;;4.40;;
20814;SDS011;10568;48.176;16.316;2023-12-04T09:00:23;7.60;;;4.07;;
20814;SDS011;10568;48.176;16.316;2023-12-04T09:02:49;5.50;;;4.43;;
20814;SDS011;10568;48.176;16.316;2023-12-04T09:05:15;5.63;;;4.13;;
20814;SDS011;10568;48.176;16.316;2023-12-04T09:07:41;7.50;;;5.27;;
20814;SDS011;10568;48.176;16.316;2023-12-04T09:10:06;5.13;;;4.60;;
20814;SDS011;10568;48.176;16.316;2023-12-04T09:12:32;9.27;;;5.17;;
20814;SDS011;10568;48.176;16.316;2023-12-04T09:15:00;10.97;;;5.80;;
20814;SDS011;10568;48.176;16.316;2023-12-04T09:17:26;10.93;;;5.60;;
20814;SDS011;10568;48.176;16.316;2023-12-04T09:19:52;5.87;;;3.73;;
20814;SDS011;10568;48.176;16.316;2023-12-04T09:22:19;9.00;;;4.70;;
20814;SDS011;10568;48.176;16.316;2023-12-04T09:24:45;8.63;;;4.37;;
20814;SDS011;10568;48.176;16.316;2023-12-04T09:27:10;7.37;;;4.03;;
20814;SDS011;10568;48.176;16.316;2023-12-04T09:29:36;9.23;;;4.30;;
20814;SDS011;10568;48.176;16.316;2023-12-04T09:32:02;11.10;;;5.77;;
20814;SDS011;10568;48.176;16.316;2023-12-04T09:34:28;8.63;;;5.17;;
20814;SDS011;10568;48.176;16.316;2023-12-04T09:36:54;5.03;;;3.80;;
20814;SDS011;10568;48.176;16.316;2023-12-04T09:39:20;8.50;;;5.63;;
20814;SDS011;10568;48.176;16.316;2023-12-04T09:41:46;9.83;;;5.73;;
20814;SDS011;10568;48.176;16.316;2023-12-04T09:44:12;9.10;;;5.10;;
20814;SDS011;10568;48.176;16.316;2023-12-04T09:46:38;7.53;;;5.90;;
20814;SDS011;10568;48.176;16.316;2023-12-04T09:49:04;6.47;;;5.03;;
20814;SDS011;10568;48.176;16.316;2023-12-04T09:51:31;7.63;;;5.23;;
20814;SDS011;10568;48.176;16.316;2023-12-04T09:53:57;9.60;;;5.07;;
20814;SDS011;10568;48.176;16.316;2023-12-04T09:56:28;13.50;;;4.97;;
20814;SDS011;10568;48.176;16.316;2023-12-04T09:58:57;9.80;;;5.53;;
20814;SDS011;10568;48.176;16.316;2023-12-04T10:01:28;9.37;;;4.93;;
20814;SDS011;10568;48.176;16.316;2023-12-04T10:03:56;10.67;;;5.43;;
20814;SDS011;10568;48.176;16.316;2023-12-04T10:06:23;11.43;;;4.90;;
20814;SDS011;10568;48.176;16.316;2023-12-04T10:08:56;9.77;;;4.83;;
20814;SDS011;10568;48.176;16.316;2023-12-04T10:11:26;6.57;;;4.20;;
20814;SDS011;10568;48.176;16.316;2023-12-04T10:13:52;10.73;;;5.63;;
20814;SDS011;10568;48.176;16.316;2023-12-04T10:16:34;11.47;;;6.20;;
20814;SDS011;10568;48.176;16.316;2023-12-04T10:19:13;8.90;;;4.93;;
20814;SDS011;10568;48.176;16.316;2023-12-04T10:21:40;6.83;;;5.17;;
20814;SDS011;10568;48.176;16.316;2023-12-04T10:24:06;6.53;;;4.57;;
20814;SDS011;10568;48.176;16.316;2023-12-04T10:26:33;9.17;;;4.60;;
20814;SDS011;10568;48.176;16.316;2023-12-04T10:29:00;7.93;;;5.23;;
20814;SDS011;10568;48.176;16.316;2023-12-04T10:31:31;7.27;;;5.00;;
20814;SDS011;10568;48.176;16.316;2023-12-04T10:33:59;7.50;;;5.00;;
20814;SDS011;10568;48.176;16.316;2023-12-04T10:36:26;7.97;;;4.67;;
20814;SDS011;10568;48.176;16.316;2023-12-04T10:38:58;8.80;;;5.67;;
20814;SDS011;10568;48.176;16.316;2023-12-04T10:41:30;8.60;;;5.80;;
20814;SDS011;10568;48.176;16.316;2023-12-04T10:43:59;6.40;;;4.60;;
20814;SDS011;10568;48.176;16.316;2023-12-04T10:46:26;8.17;;;5.30;;
20814;SDS011;10568;48.176;16.316;2023-12-04T10:48:53;8.37;;;5.13;;
20814;SDS011;10568;48.176;16.316;2023-12-04T10:51:19;8.40;;;5.33;;
20814;SDS011;10568;48.176;16.316;2023-12-04T10:53:49;9.73;;;5.20;;
20814;SDS011;10568;48.176;16.316;2023-12-04T10:56:19;9.97;;;5.50;;
20814;SDS011;10568;48.176;16.316;2023-12-04T10:58:54;9.80;;;5.00;;
20814;SDS011;10568;48.176;16.316;2023-12-04T11:01:23;9.03;;;4.83;;
20814;SDS011;10568;48.176;16.316;2023-12-04T11:03:53;6.13;;;4.40;;
20814;SDS011;10568;48.176;16.316;2023-12-04T11:06:24;8.27;;;4.93;;
20814;SDS011;10568;48.176;16.316;2023-12-04T11:08:53;10.63;;;5.40;;
20814;SDS011;10568;48.176;16.316;2023-12-04T11:11:43;6.03;;;4.37;;
20814;SDS011;10568;48.176;16.316;2023-12-04T11:14:11;8.03;;;5.30;;
20814;SDS011;10568;48.176;16.316;2023-12-04T11:16:47;8.50;;;5.10;;
20814;SDS011;10568;48.176;16.316;2023-12-04T11:19:20;10.00;;;5.37;;
20814;SDS011;10568;48.176;16.316;2023-12-04T11:21:58;8.83;;;5.30;;
20814;SDS011;10568;48.176;16.316;2023-12-04T11:24:24;9.77;;;5.47;;
20814;SDS011;10568;48.176;16.316;2023-12-04T11:26:50;8.67;;;5.10;;
20814;SDS011;10568;48.176;16.316;2023-12-04T11:29:17;7.90;;;5.43;;
20814;SDS011;10568;48.176;16.316;2023-12-04T11:31:44;8.70;;;5.30;;
20814;SDS011;10568;48.176;16.316;2023-12-04T11:34:11;7.03;;;5.20;;
20814;SDS011;10568;48.176;16.316;2023-12-04T11:36:37;9.00;;;5.43;;
20814;SDS011;10568;48.176;16.316;2023-12-04T11:39:07;9.27;;;5.30;;
20814;SDS011;10568;48.176;16.316;2023-12-04T11:41:38;10.63;;;5.40;;
20814;SDS011;10568;48.176;16.316;2023-12-04T11:44:13;10.67;;;5.17;;
20814;SDS011;10568;48.176;16.316;2023-12-04T11:47:03;8.73;;;4.77;;
20814;SDS011;10568;48.176;16.316;2023-12-04T11:49:50;8.87;;;4.70;;
20814;SDS011;10568;48.176;16.316;2023-12-04T11:52:16;8.13;;;5.37;;
20814;SDS011;10568;48.176;16.316;2023-12-04T11:54:59;7.27;;;5.00;;
20814;SDS011;10568;48.176;16.316;2023-12-04T11:57:32;8.07;;;5.17;;
20814;SDS011;10568;48.176;16.316;2023-12-04T12:00:12;9.70;;;5.80;;
20814;SDS011;10568;48.176;16.316;2023-12-04T12:02:46;6.93;;;5.00;;
20814;SDS011;10568;48.176;16.316;2023-12-04T12:05:14;9.30;;;5.07;;
20814;SDS011;10568;48.176;16.316;2023-12-04T12:07:41;8.83;;;4.17;;
20814;SDS011;10568;48.176;16.316;2023-12-04T12:10:07;8.57;;;4.77;;
20814;SDS011;10568;48.176;16.316;2023-12-04T12:12:35;6.63;;;3.63;;
20814;SDS011;10568;48.176;16.316;2023-12-04T12:15:01;6.17;;;3.77;;
20814;SDS011;10568;48.176;16.316;2023-12-04T12:17:28;5.83;;;3.30;;
20814;SDS011;10568;48.176;16.316;2023-12-04T12:19:54;6.47;;;4.20;;
20814;SDS011;10568;48.176;16.316;2023-12-04T12:22:22;7.27;;;4.47;;
20814;SDS011;10568;48.176;16.316;2023-12-04T12:24:48;9.13;;;4.13;;
20814;SDS011;10568;48.176;16.316;2023-12-04T12:27:15;7.00;;;3.60;;
20814;SDS011;10568;48.176;16.316;2023-12-04T12:29:41;8.97;;;4.50;;
20814;SDS011;10568;48.176;16.316;2023-12-04T12:32:06;9.53;;;4.97;;
20814;SDS011;10568;48.176;16.316;2023-12-04T12:34:32;8.37;;;4.60;;
20814;SDS011;10568;48.176;16.316;2023-12-04T12:37:01;8.87;;;4.73;;
20814;SDS011;10568;48.176;16.316;2023-12-04T12:39:29;9.57;;;5.17;;
20814;SDS011;10568;48.176;16.316;2023-12-04T12:41:55;7.03;;;4.97;;
20814;SDS011;10568;48.176;16.316;2023-12-04T12:44:21;7.10;;;4.80;;
20814;SDS011;10568;48.176;16.316;2023-12-04T12:46:47;5.77;;;4.07;;
20814;SDS011;10568;48.176;16.316;2023-12-04T12:49:17;8.47;;;4.97;;
20814;SDS011;10568;48.176;16.316;2023-12-04T12:51:45;7.27;;;5.27;;
20814;SDS011;10568;48.176;16.316;2023-12-04T12:54:10;9.17;;;5.67;;
20814;SDS011;10568;48.176;16.316;2023-12-04T12:56:36;7.63;;;4.93;;
20814;SDS011;10568;48.176;16.316;2023-12-04T12:59:02;9.20;;;5.27;;
20814;SDS011;10568;48.176;16.316;2023-12-04T13:01:33;8.10;;;5.37;;
20814;SDS011;10568;48.176;16.316;2023-12-04T13:04:00;10.33;;;6.17;;
20814;SDS011;10568;48.176;16.316;2023-12-04T13:06:26;11.93;;;5.67;;
20814;SDS011;10568;48.176;16.316;2023-12-04T13:08:52;9.67;;;5.97;;
20814;SDS011;10568;48.176;16.316;2023-12-04T13:11:17;9.23;;;5.23;;
20814;SDS011;10568;48.176;16.316;2023-12-04T13:13:43;7.40;;;5.30;;
20814;SDS011;10568;48.176;16.316;2023-12-04T13:16:09;8.13;;;5.07;;
20814;SDS011;10568;48.176;16.316;2023-12-04T13:18:35;9.80;;;5.50;;
20814;SDS011;10568;48.176;16.316;2023-12-04T13:21:03;8.17;;;4.50;;
20814;SDS011;10568;48.176;16.316;2023-12-04T13:23:29;8.40;;;4.53;;
20814;SDS011;10568;48.176;16.316;2023-12-04T13:25:54;10.00;;;5.40;;
20814;SDS011;10568;48.176;16.316;2023-12-04T13:28:20;7.43;;;4.00;;
20814;SDS011;10568;48.176;16.316;2023-12-04T13:30:46;10.27;;;4.07;;
20814;SDS011;10568;48.176;16.316;2023-12-04T13:33:12;8.07;;;4.43;;
20814;SDS011;10568;48.176;16.316;2023-12-04T13:35:37;6.20;;;3.73;;
20814;SDS011;10568;48.176;16.316;2023-12-04T13:38:03;5.07;;;3.80;;
20814;SDS011;10568;48.176;16.316;2023-12-04T13:40:32;6.37;;;4.50;;
20814;SDS011;10568;48.176;16.316;2023-12-04T13:42:59;7.80;;;4.33;;
20814;SDS011;10568;48.176;16.316;2023-12-04T13:45:44;9.33;;;4.37;;
20814;SDS011;10568;48.176;16.316;2023-12-04T13:48:10;7.33;;;4.50;;
20814;SDS011;10568;48.176;16.316;2023-12-04T13:50:36;7.43;;;4.97;;
20814;SDS011;10568;48.176;16.316;2023-12-04T13:53:02;8.77;;;4.67;;
20814;SDS011;10568;48.176;16.316;2023-12-04T13:55:29;7.63;;;4.20;;
20814;SDS011;10568;48.176;16.316;2023-12-04T13:58:23;7.17;;;4.20;;
20814;SDS011;10568;48.176;16.316;2023-12-04T14:01:03;9.40;;;4.87;;
20814;SDS011;10568;48.176;16.316;2023-12-04T14:03:38;7.23;;;4.60;;
20814;SDS011;10568;48.176;16.316;2023-12-04T14:06:05;7.97;;;4.47;;
20814;SDS011;10568;48.176;16.316;2023-12-04T14:08:31;7.57;;;4.60;;
20814;SDS011;10568;48.176;16.316;2023-12-04T14:11:01;8.90;;;4.60;;
20814;SDS011;10568;48.176;16.316;2023-12-04T14:13:32;7.67;;;4.43;;
20814;SDS011;10568;48.176;16.316;2023-12-04T14:15:58;7.17;;;4.97;;
20814;SDS011;10568;48.176;16.316;2023-12-04T14:18:26;6.43;;;4.40;;
20814;SDS011;10568;48.176;16.316;2023-12-04T14:20:52;7.03;;;3.83;;
20814;SDS011;10568;48.176;16.316;2023-12-04T14:23:18;8.37;;;4.47;;
20814;SDS011;10568;48.176;16.316;2023-12-04T14:25:46;7.83;;;4.37;;
20814;SDS011;10568;48.176;16.316;2023-12-04T14:28:25;7.80;;;4.23;;
20814;SDS011;10568;48.176;16.316;2023-12-04T14:30:50;6.90;;;3.80;;
20814;SDS011;10568;48.176;16.316;2023-12-04T14:33:17;5.10;;;3.40;;
20814;SDS011;10568;48.176;16.316;2023-12-04T14:35:43;7.50;;;4.20;;
20814;SDS011;10568;48.176;16.316;2023-12-04T14:38:09;9.00;;;4.13;;